Nyk Deneb — 3EOF8 — position and weather

sailwx.info

Track history (hours):
 
Tides and Currents Weather Stations Pressure Air Temp Water Temp Dewpoint Dewpoint Depression Visibility Wind Speed Wind Dir Waves Ship Positions

Nyk Deneb

Last reported at 2017-Mar-30 01:29 UTC. Time now 2017-Mar-30 02:47 UTC.
Position N 30°13' W 116°51'.

Length 294 m; draft 10.7 m.

Type: Ship (hazmat cat B). MMSI: 355717000.

Date/timePositionNaut miles runAvg speedWind from/ knotsBaromVisibWave heightAir tempDewpointWater temp
2017-Mar-30 01:29N 30°13' W 116°51'2320.5
2017-Mar-30 00:21N 30°35' W 116°59'1620.6
2017-Mar-29 23:33N 30°50' W 117°06'2120.8
2017-Mar-29 22:33N 31°10' W 117°14'2120.9
2017-Mar-29 21:33N 31°29' W 117°22'2120.7
2017-Mar-29 20:33N 31°49' W 117°30'2020.4
2017-Mar-29 19:34N 32°08' W 117°38'2019.5
2017-Mar-29 18:33N 32°27' W 117°45'1919.0
2017-Mar-29 17:34N 32°45' W 117°53'1818.2
2017-Mar-29 16:33N 33°02' W 117°59'1211.9
2017-Mar-29 15:33N 33°14' W 118°04'1211.8
2017-Mar-29 14:33N 33°25' W 118°08'1211.7
2017-Mar-29 13:33N 33°36' W 118°13'9 9.0
2017-Mar-29 12:34N 33°44' W 118°17'2 1.7
2017-Mar-29 11:32N 33°46' W 118°15'0 0.0
2017-Mar-29 10:32N 33°46' W 118°15'0 0.0
2017-Mar-29 09:29N 33°46' W 118°15'0 0.0
2017-Mar-29 08:32N 33°46' W 118°15'0 0.0
2017-Mar-29 07:32N 33°46' W 118°15'0 0.0
2017-Mar-29 06:32N 33°46' W 118°15'0 0.0
2017-Mar-29 05:32N 33°46' W 118°15'0 0.0
2017-Mar-29 04:29N 33°46' W 118°15'0 0.0
2017-Mar-29 03:32N 33°46' W 118°15'0 0.0
2017-Mar-29 02:32N 33°46' W 118°15'0 0.0
2017-Mar-29 01:32N 33°46' W 118°15'0 0.0
2017-Mar-29 00:32N 33°46' W 118°15'0 0.0
2017-Mar-28 23:32N 33°46' W 118°15'0 0.0
2017-Mar-28 22:32N 33°46' W 118°15'0 0.0
2017-Mar-28 21:32N 33°46' W 118°15'0 0.0
2017-Mar-28 20:32N 33°46' W 118°15'0 0.0
2017-Mar-28 19:32N 33°46' W 118°15'0 0.0
2017-Mar-28 18:26N 33°46' W 118°15'0 0.0
2017-Mar-28 17:32N 33°46' W 118°15'0 0.0
2017-Mar-28 16:32N 33°46' W 118°15'0 0.0
2017-Mar-28 15:32N 33°46' W 118°15'0 0.0
2017-Mar-28 14:32N 33°46' W 118°15'0 0.0
2017-Mar-28 13:32N 33°46' W 118°15'1 1.1
2017-Mar-28 12:33N 33°45' W 118°16'7 7.3
2017-Mar-28 11:33N 33°38' W 118°14'10 9.7
2017-Mar-28 10:33N 33°38' W 118°26'1111.4
2017-Mar-28 09:33N 33°44' W 118°38'1111.4
2017-Mar-28 08:33N 33°50' W 118°50'1211.4
2017-Mar-28 07:32N 33°55' W 119°02'1111.4
2017-Mar-28 06:33N 34°01' W 119°14'1111.4
2017-Mar-28 05:33N 34°05' W 119°27'1211.6
2017-Mar-28 04:33N 34°08' W 119°40'1212.3
2017-Mar-28 03:33N 34°11' W 119°55'1313.2
2017-Mar-28 02:33N 34°15' W 120°10'1717.1
2017-Mar-28 01:33N 34°19' W 120°30'1918.6
2017-Mar-28 00:33N 34°24' W 120°52'1919.3
2017-Mar-27 23:33N 34°39' W 121°07'2020.3
2017-Mar-27 22:33N 34°57' W 121°18'2020.1
2017-Mar-27 21:33N 35°15' W 121°30'2020.3
2017-Mar-27 20:33N 35°33' W 121°42'2019.6
2017-Mar-27 19:33N 35°50' W 121°54'1919.4
2017-Mar-27 18:33N 36°07' W 122°05'2019.9
2017-Mar-27 17:33N 36°24' W 122°17'2019.8
2017-Mar-27 16:33N 36°42' W 122°28'2019.7
2017-Mar-27 15:33N 36°59' W 122°40'1919.1
2017-Mar-27 14:33N 37°18' W 122°44'1919.5
2017-Mar-27 13:33N 37°37' W 122°44'1211.9
2017-Mar-27 12:33N 37°47' W 122°35'1212.2
2017-Mar-27 11:33N 37°48' W 122°20'1 1.1
2017-Mar-27 10:32N 37°48' W 122°18'0 0.0
2017-Mar-27 09:34N 37°48' W 122°18'0 0.0
2017-Mar-27 08:34N 37°48' W 122°18'0 0.0
2017-Mar-27 07:34N 37°48' W 122°18'0 0.0
2017-Mar-27 06:33N 37°48' W 122°18'0 0.0
2017-Mar-27 05:33N 37°48' W 122°18'0 0.0
2017-Mar-27 04:34N 37°48' W 122°18'0 0.0
2017-Mar-27 03:34N 37°48' W 122°18'0 0.0
2017-Mar-27 02:34N 37°48' W 122°18'0 0.0
2017-Mar-27 01:34N 37°48' W 122°18'0 0.0
2017-Mar-27 00:34N 37°48' W 122°18'0 0.0
2017-Mar-26 23:33N 37°48' W 122°18'0 0.0
2017-Mar-26 22:33N 37°48' W 122°18'0 0.2
2017-Mar-26 21:34N 37°48' W 122°18'8 8.4
2017-Mar-26 20:34N 37°49' W 122°29'1212.4
2017-Mar-26 19:33N 37°46' W 122°44'1211.6
2017-Mar-26 18:33N 37°51' W 122°57'1110.9
2017-Mar-26 17:33N 37°56' W 123°09'1010.2
2017-Mar-26 16:33N 38°04' W 123°18'9 9.4
2017-Mar-26 15:33N 38°09' W 123°28'1 0.6
2017-Mar-26 14:33N 38°09' W 123°29'1 0.6
2017-Mar-26 13:33N 38°09' W 123°30'1 1.1
2017-Mar-26 12:33N 38°10' W 123°31'1 1.2
2017-Mar-26 11:33N 38°10' W 123°32'1 1.3
2017-Mar-26 10:33N 38°11' W 123°33'2 1.6
2017-Mar-26 09:33N 38°10' W 123°32'5 4.8
2017-Mar-26 08:33N 38°15' W 123°34'1312.8
2017-Mar-26 07:33N 38°25' W 123°43'1312.7
2017-Mar-26 06:33N 38°36' W 123°53'1312.7
2017-Mar-26 05:30N 38°46' W 124°03'38913.4
2017-Mar-25 00:27N 45°13' W 125°04'1315.0
2017-Mar-24 23:34N 45°26' W 125°05'1515.4
2017-Mar-24 22:33N 45°42' W 125°06'1515.5
2017-Mar-24 21:34N 45°57' W 125°08'1515.1
2017-Mar-24 20:34N 46°12' W 125°10'1514.9
2017-Mar-24 19:34N 46°27' W 125°11'1514.7
2017-Mar-24 18:34N 46°42' W 125°13'1514.6
2017-Mar-24 17:34N 46°56' W 125°14'5416.1
2017-Mar-24 14:13N 47°50' W 125°22'1014.7
2017-Mar-24 13:32N 47°59' W 125°15'1515.4
2017-Mar-24 12:33N 48°14' W 125°10'1414.5
2017-Mar-24 11:34N 48°27' W 125°04'1413.8
2017-Mar-24 10:33N 48°31' W 124°44'1514.7
2017-Mar-24 09:33N 48°25' W 124°24'1515.3
2017-Mar-24 08:33N 48°19' W 124°03'1615.7
2017-Mar-24 07:33N 48°16' W 123°40'1413.6
2017-Mar-24 06:33N 48°09' W 123°22'1616.5
2017-Mar-24 05:33N 48°12' W 122°58'1817.4
2017-Mar-24 04:33N 48°01' W 122°37'1919.6
2017-Mar-24 03:34N 47°43' W 122°26'1615.7
2017-Mar-24 02:33N 47°28' W 122°24'1010.3
2017-Mar-24 01:33N 47°17' W 122°26'2 2.4
2017-Mar-24 00:31N 47°16' W 122°24'0 0.0
2017-Mar-23 23:31N 47°16' W 122°24'0 0.0
2017-Mar-23 22:31N 47°16' W 122°24'0 0.0
2017-Mar-23 21:31N 47°16' W 122°24'0 0.0
2017-Mar-23 20:31N 47°16' W 122°24'0 0.0
2017-Mar-23 19:31N 47°16' W 122°24'0 0.0
2017-Mar-23 18:31N 47°16' W 122°24'0 0.0
2017-Mar-23 17:28N 47°16' W 122°24'0 0.0
2017-Mar-23 16:31N 47°16' W 122°24'0 0.0
2017-Mar-23 15:31N 47°16' W 122°24'0 0.0
2017-Mar-23 14:31N 47°16' W 122°24'0 0.0
2017-Mar-23 13:31N 47°16' W 122°24'0 0.0
2017-Mar-23 12:31N 47°16' W 122°24'0 0.0
2017-Mar-23 11:31N 47°16' W 122°24'0 0.0
2017-Mar-23 10:31N 47°16' W 122°24'0 0.0
2017-Mar-23 09:31N 47°16' W 122°24'0 0.0
2017-Mar-23 08:31N 47°16' W 122°24'0 0.0
2017-Mar-23 07:31N 47°16' W 122°24'0 0.0
2017-Mar-23 06:25N 47°16' W 122°24'0 0.0
2017-Mar-23 05:28N 47°16' W 122°24'0 0.0
2017-Mar-23 04:31N 47°16' W 122°24'0 0.0
2017-Mar-23 03:28N 47°16' W 122°24'0 0.0
2017-Mar-23 02:28N 47°16' W 122°24'3 3.1
2017-Mar-23 01:33N 47°18' W 122°27'8 7.9
2017-Mar-23 00:33N 47°25' W 122°23'1616.5
2017-Mar-22 23:33N 47°41' W 122°28'1716.9
2017-Mar-22 22:33N 47°58' W 122°34'1716.8
2017-Mar-22 21:33N 48°11' W 122°50'1918.8
2017-Mar-22 20:33N 48°10' W 123°18'1111.0
2017-Mar-22 19:33N 48°20' W 123°27'1312.7
2017-Mar-22 18:33N 48°28' W 123°12'1717.0
2017-Mar-22 17:34N 48°45' W 123°07'1514.6
2017-Mar-22 16:33N 48°58' W 123°15'1717.1
2017-Mar-22 15:33N 49°15' W 123°21'1010.3
2017-Mar-22 14:34N 49°18' W 123°06'0 0.2
2017-Mar-22 13:31N 49°17' W 123°06'0 0.0
2017-Mar-22 12:31N 49°17' W 123°06'0 0.0
2017-Mar-22 11:31N 49°17' W 123°06'0 0.0
2017-Mar-22 10:31N 49°17' W 123°06'0 0.0
2017-Mar-22 09:31N 49°17' W 123°06'0 0.0
2017-Mar-22 08:31N 49°17' W 123°06'0 0.0
2017-Mar-22 07:31N 49°17' W 123°06'0 0.0
2017-Mar-22 06:31N 49°17' W 123°06'0 0.0
2017-Mar-22 05:31N 49°17' W 123°06'0 0.0
2017-Mar-22 04:31N 49°17' W 123°06'0 0.0
2017-Mar-22 03:31N 49°17' W 123°06'1 0.8
2017-Mar-22 02:33N 49°18' W 123°07'3 3.3
2017-Mar-22 01:32N 49°19' W 123°12'1 0.9
2017-Mar-22 00:34N 49°19' W 123°13'1514.7
2017-Mar-21 23:34N 49°05' W 123°20'1818.2
2017-Mar-21 22:34N 48°51' W 123°02'1414.0
2017-Mar-21 21:34N 48°40' W 123°14'1716.6
2017-Mar-21 20:34N 48°23' W 123°13'6 6.2
2017-Mar-21 19:33N 48°20' W 123°22'0 0.1
2017-Mar-21 18:33N 48°20' W 123°22'0 0.1
2017-Mar-21 17:33N 48°20' W 123°22'6 6.0
2017-Mar-21 16:34N 48°15' W 123°27'1111.2
2017-Mar-21 15:33N 48°13' W 123°44'1211.9
2017-Mar-21 14:33N 48°15' W 124°01'1212.3
2017-Mar-21 13:33N 48°21' W 124°18'1212.4
2017-Mar-21 12:34N 48°26' W 124°35'1212.1
2017-Mar-21 11:33N 48°28' W 124°53'1312.6
2017-Mar-21 10:33N 48°29' W 125°12'1212.3
2017-Mar-21 09:33N 48°29' W 125°30'1212.1
2017-Mar-21 08:33N 48°29' W 125°48'1212.3
2017-Mar-21 07:33N 48°29' W 126°07'1312.4
2017-Mar-21 06:33N 48°29' W 126°26'  
Track history (hours):
 
Tides and Currents Weather Stations Pressure Air Temp Water Temp Dewpoint Dewpoint Depression Visibility Wind Speed Wind Dir Waves Ship Positions

Nyk Deneb

Last reported at 2017-Mar-30 01:29 UTC. Time now 2017-Mar-30 02:47 UTC.
Position N 30°13' W 116°51'.

Length 294 m; draft 10.7 m.

Type: Ship (hazmat cat B). MMSI: 355717000.

Date/timePositionNaut miles runAvg speedWind from/ knotsBaromVisibWave heightAir tempDewpointWater temp
2017-Mar-30 01:29N 30°13' W 116°51'2320.5
2017-Mar-30 00:21N 30°35' W 116°59'1620.6
2017-Mar-29 23:33N 30°50' W 117°06'2120.8
2017-Mar-29 22:33N 31°10' W 117°14'2120.9
2017-Mar-29 21:33N 31°29' W 117°22'2120.7
2017-Mar-29 20:33N 31°49' W 117°30'2020.4
2017-Mar-29 19:34N 32°08' W 117°38'2019.5
2017-Mar-29 18:33N 32°27' W 117°45'1919.0
2017-Mar-29 17:34N 32°45' W 117°53'1818.2
2017-Mar-29 16:33N 33°02' W 117°59'1211.9
2017-Mar-29 15:33N 33°14' W 118°04'1211.8
2017-Mar-29 14:33N 33°25' W 118°08'1211.7
2017-Mar-29 13:33N 33°36' W 118°13'9 9.0
2017-Mar-29 12:34N 33°44' W 118°17'2 1.7
2017-Mar-29 11:32N 33°46' W 118°15'0 0.0
2017-Mar-29 10:32N 33°46' W 118°15'0 0.0
2017-Mar-29 09:29N 33°46' W 118°15'0 0.0
2017-Mar-29 08:32N 33°46' W 118°15'0 0.0
2017-Mar-29 07:32N 33°46' W 118°15'0 0.0
2017-Mar-29 06:32N 33°46' W 118°15'0 0.0
2017-Mar-29 05:32N 33°46' W 118°15'0 0.0
2017-Mar-29 04:29N 33°46' W 118°15'0 0.0
2017-Mar-29 03:32N 33°46' W 118°15'0 0.0
2017-Mar-29 02:32N 33°46' W 118°15'0 0.0
2017-Mar-29 01:32N 33°46' W 118°15'0 0.0
2017-Mar-29 00:32N 33°46' W 118°15'0 0.0
2017-Mar-28 23:32N 33°46' W 118°15'0 0.0
2017-Mar-28 22:32N 33°46' W 118°15'0 0.0
2017-Mar-28 21:32N 33°46' W 118°15'0 0.0
2017-Mar-28 20:32N 33°46' W 118°15'0 0.0
2017-Mar-28 19:32N 33°46' W 118°15'0 0.0
2017-Mar-28 18:26N 33°46' W 118°15'0 0.0
2017-Mar-28 17:32N 33°46' W 118°15'0 0.0
2017-Mar-28 16:32N 33°46' W 118°15'0 0.0
2017-Mar-28 15:32N 33°46' W 118°15'0 0.0
2017-Mar-28 14:32N 33°46' W 118°15'0 0.0
2017-Mar-28 13:32N 33°46' W 118°15'1 1.1
2017-Mar-28 12:33N 33°45' W 118°16'7 7.3
2017-Mar-28 11:33N 33°38' W 118°14'10 9.7
2017-Mar-28 10:33N 33°38' W 118°26'1111.4
2017-Mar-28 09:33N 33°44' W 118°38'1111.4
2017-Mar-28 08:33N 33°50' W 118°50'1211.4
2017-Mar-28 07:32N 33°55' W 119°02'1111.4
2017-Mar-28 06:33N 34°01' W 119°14'1111.4
2017-Mar-28 05:33N 34°05' W 119°27'1211.6
2017-Mar-28 04:33N 34°08' W 119°40'1212.3
2017-Mar-28 03:33N 34°11' W 119°55'1313.2
2017-Mar-28 02:33N 34°15' W 120°10'1717.1
2017-Mar-28 01:33N 34°19' W 120°30'1918.6
2017-Mar-28 00:33N 34°24' W 120°52'1919.3
2017-Mar-27 23:33N 34°39' W 121°07'2020.3
2017-Mar-27 22:33N 34°57' W 121°18'2020.1
2017-Mar-27 21:33N 35°15' W 121°30'2020.3
2017-Mar-27 20:33N 35°33' W 121°42'2019.6
2017-Mar-27 19:33N 35°50' W 121°54'1919.4
2017-Mar-27 18:33N 36°07' W 122°05'2019.9
2017-Mar-27 17:33N 36°24' W 122°17'2019.8
2017-Mar-27 16:33N 36°42' W 122°28'2019.7
2017-Mar-27 15:33N 36°59' W 122°40'1919.1
2017-Mar-27 14:33N 37°18' W 122°44'1919.5
2017-Mar-27 13:33N 37°37' W 122°44'1211.9
2017-Mar-27 12:33N 37°47' W 122°35'1212.2
2017-Mar-27 11:33N 37°48' W 122°20'1 1.1
2017-Mar-27 10:32N 37°48' W 122°18'0 0.0
2017-Mar-27 09:34N 37°48' W 122°18'0 0.0
2017-Mar-27 08:34N 37°48' W 122°18'0 0.0
2017-Mar-27 07:34N 37°48' W 122°18'0 0.0
2017-Mar-27 06:33N 37°48' W 122°18'0 0.0
2017-Mar-27 05:33N 37°48' W 122°18'0 0.0
2017-Mar-27 04:34N 37°48' W 122°18'0 0.0
2017-Mar-27 03:34N 37°48' W 122°18'0 0.0
2017-Mar-27 02:34N 37°48' W 122°18'0 0.0
2017-Mar-27 01:34N 37°48' W 122°18'0 0.0
2017-Mar-27 00:34N 37°48' W 122°18'0 0.0
2017-Mar-26 23:33N 37°48' W 122°18'0 0.0
2017-Mar-26 22:33N 37°48' W 122°18'0 0.2
2017-Mar-26 21:34N 37°48' W 122°18'8 8.4
2017-Mar-26 20:34N 37°49' W 122°29'1212.4
2017-Mar-26 19:33N 37°46' W 122°44'1211.6
2017-Mar-26 18:33N 37°51' W 122°57'1110.9
2017-Mar-26 17:33N 37°56' W 123°09'1010.2
2017-Mar-26 16:33N 38°04' W 123°18'9 9.4
2017-Mar-26 15:33N 38°09' W 123°28'1 0.6
2017-Mar-26 14:33N 38°09' W 123°29'1 0.6
2017-Mar-26 13:33N 38°09' W 123°30'1 1.1
2017-Mar-26 12:33N 38°10' W 123°31'1 1.2
2017-Mar-26 11:33N 38°10' W 123°32'1 1.3
2017-Mar-26 10:33N 38°11' W 123°33'2 1.6
2017-Mar-26 09:33N 38°10' W 123°32'5 4.8
2017-Mar-26 08:33N 38°15' W 123°34'1312.8
2017-Mar-26 07:33N 38°25' W 123°43'1312.7
2017-Mar-26 06:33N 38°36' W 123°53'1312.7
2017-Mar-26 05:30N 38°46' W 124°03'38913.4
2017-Mar-25 00:27N 45°13' W 125°04'1315.0
2017-Mar-24 23:34N 45°26' W 125°05'1515.4
2017-Mar-24 22:33N 45°42' W 125°06'1515.5
2017-Mar-24 21:34N 45°57' W 125°08'1515.1
2017-Mar-24 20:34N 46°12' W 125°10'1514.9
2017-Mar-24 19:34N 46°27' W 125°11'1514.7
2017-Mar-24 18:34N 46°42' W 125°13'1514.6
2017-Mar-24 17:34N 46°56' W 125°14'5416.1
2017-Mar-24 14:13N 47°50' W 125°22'1014.7
2017-Mar-24 13:32N 47°59' W 125°15'1515.4
2017-Mar-24 12:33N 48°14' W 125°10'1414.5
2017-Mar-24 11:34N 48°27' W 125°04'1413.8
2017-Mar-24 10:33N 48°31' W 124°44'1514.7
2017-Mar-24 09:33N 48°25' W 124°24'1515.3
2017-Mar-24 08:33N 48°19' W 124°03'1615.7
2017-Mar-24 07:33N 48°16' W 123°40'1413.6
2017-Mar-24 06:33N 48°09' W 123°22'1616.5
2017-Mar-24 05:33N 48°12' W 122°58'1817.4
2017-Mar-24 04:33N 48°01' W 122°37'1919.6
2017-Mar-24 03:34N 47°43' W 122°26'1615.7
2017-Mar-24 02:33N 47°28' W 122°24'1010.3
2017-Mar-24 01:33N 47°17' W 122°26'2 2.4
2017-Mar-24 00:31N 47°16' W 122°24'0 0.0
2017-Mar-23 23:31N 47°16' W 122°24'0 0.0
2017-Mar-23 22:31N 47°16' W 122°24'0 0.0
2017-Mar-23 21:31N 47°16' W 122°24'0 0.0
2017-Mar-23 20:31N 47°16' W 122°24'0 0.0
2017-Mar-23 19:31N 47°16' W 122°24'0 0.0
2017-Mar-23 18:31N 47°16' W 122°24'0 0.0
2017-Mar-23 17:28N 47°16' W 122°24'0 0.0
2017-Mar-23 16:31N 47°16' W 122°24'0 0.0
2017-Mar-23 15:31N 47°16' W 122°24'0 0.0
2017-Mar-23 14:31N 47°16' W 122°24'0 0.0
2017-Mar-23 13:31N 47°16' W 122°24'0 0.0
2017-Mar-23 12:31N 47°16' W 122°24'0 0.0
2017-Mar-23 11:31N 47°16' W 122°24'0 0.0
2017-Mar-23 10:31N 47°16' W 122°24'0 0.0
2017-Mar-23 09:31N 47°16' W 122°24'0 0.0
2017-Mar-23 08:31N 47°16' W 122°24'0 0.0
2017-Mar-23 07:31N 47°16' W 122°24'0 0.0
2017-Mar-23 06:25N 47°16' W 122°24'0 0.0
2017-Mar-23 05:28N 47°16' W 122°24'0 0.0
2017-Mar-23 04:31N 47°16' W 122°24'0 0.0
2017-Mar-23 03:28N 47°16' W 122°24'0 0.0
2017-Mar-23 02:28N 47°16' W 122°24'3 3.1
2017-Mar-23 01:33N 47°18' W 122°27'8 7.9
2017-Mar-23 00:33N 47°25' W 122°23'1616.5
2017-Mar-22 23:33N 47°41' W 122°28'1716.9
2017-Mar-22 22:33N 47°58' W 122°34'1716.8
2017-Mar-22 21:33N 48°11' W 122°50'1918.8
2017-Mar-22 20:33N 48°10' W 123°18'1111.0
2017-Mar-22 19:33N 48°20' W 123°27'1312.7
2017-Mar-22 18:33N 48°28' W 123°12'1717.0
2017-Mar-22 17:34N 48°45' W 123°07'1514.6
2017-Mar-22 16:33N 48°58' W 123°15'1717.1
2017-Mar-22 15:33N 49°15' W 123°21'1010.3
2017-Mar-22 14:34N 49°18' W 123°06'0 0.2
2017-Mar-22 13:31N 49°17' W 123°06'0 0.0
2017-Mar-22 12:31N 49°17' W 123°06'0 0.0
2017-Mar-22 11:31N 49°17' W 123°06'0 0.0
2017-Mar-22 10:31N 49°17' W 123°06'0 0.0
2017-Mar-22 09:31N 49°17' W 123°06'0 0.0
2017-Mar-22 08:31N 49°17' W 123°06'0 0.0
2017-Mar-22 07:31N 49°17' W 123°06'0 0.0
2017-Mar-22 06:31N 49°17' W 123°06'0 0.0
2017-Mar-22 05:31N 49°17' W 123°06'0 0.0
2017-Mar-22 04:31N 49°17' W 123°06'0 0.0
2017-Mar-22 03:31N 49°17' W 123°06'1 0.8
2017-Mar-22 02:33N 49°18' W 123°07'3 3.3
2017-Mar-22 01:32N 49°19' W 123°12'1 0.9
2017-Mar-22 00:34N 49°19' W 123°13'1514.7
2017-Mar-21 23:34N 49°05' W 123°20'1818.2
2017-Mar-21 22:34N 48°51' W 123°02'1414.0
2017-Mar-21 21:34N 48°40' W 123°14'1716.6
2017-Mar-21 20:34N 48°23' W 123°13'6 6.2
2017-Mar-21 19:33N 48°20' W 123°22'0 0.1
2017-Mar-21 18:33N 48°20' W 123°22'0 0.1
2017-Mar-21 17:33N 48°20' W 123°22'6 6.0
2017-Mar-21 16:34N 48°15' W 123°27'1111.2
2017-Mar-21 15:33N 48°13' W 123°44'1211.9
2017-Mar-21 14:33N 48°15' W 124°01'1212.3
2017-Mar-21 13:33N 48°21' W 124°18'1212.4
2017-Mar-21 12:34N 48°26' W 124°35'1212.1
2017-Mar-21 11:33N 48°28' W 124°53'1312.6
2017-Mar-21 10:33N 48°29' W 125°12'1212.3
2017-Mar-21 09:33N 48°29' W 125°30'1212.1
2017-Mar-21 08:33N 48°29' W 125°48'1212.3
2017-Mar-21 07:33N 48°29' W 126°07'1312.4
2017-Mar-21 06:33N 48°29' W 126°26'  

Dump ship's entire track history